createdAt,value
2019-03-05T00:02:24.599Z,4.33
2019-03-05T00:04:55.426Z,2.40
2019-03-05T00:07:26.390Z,4.93
2019-03-05T00:09:56.891Z,2.73
2019-03-05T00:12:27.451Z,5.80
2019-03-05T00:14:57.986Z,1.30
2019-03-05T00:17:28.388Z,1.67
2019-03-05T00:19:58.985Z,4.30
2019-03-05T00:22:29.783Z,3.60
2019-03-05T00:25:05.676Z,3.33
2019-03-05T00:27:59.319Z,3.23
2019-03-05T00:30:50.791Z,2.00
2019-03-05T00:33:42.718Z,10.77
2019-03-05T00:36:33.367Z,5.43
2019-03-05T00:39:47.220Z,3.17
2019-03-05T00:42:43.768Z,2.10
2019-03-05T00:45:50.012Z,3.33
2019-03-05T00:49:03.554Z,7.97
2019-03-05T00:52:21.212Z,4.47
2019-03-05T00:55:37.726Z,4.70
2019-03-05T00:58:24.756Z,3.83
2019-03-05T01:01:32.024Z,5.23
2019-03-05T01:04:18.412Z,4.30
2019-03-05T01:06:48.984Z,6.00
2019-03-05T01:09:22.326Z,8.63
2019-03-05T01:11:52.780Z,6.70
2019-03-05T01:14:24.430Z,5.83
2019-03-05T01:16:55.007Z,6.33
2019-03-05T01:19:25.487Z,4.27
2019-03-05T01:21:55.830Z,8.27
2019-03-05T01:24:26.296Z,5.80
2019-03-05T01:26:56.732Z,5.37
2019-03-05T01:29:27.203Z,6.93
2019-03-05T01:32:16.571Z,5.60
2019-03-05T01:35:05.986Z,7.70
2019-03-05T01:37:36.804Z,6.50
2019-03-05T01:40:32.904Z,6.27
2019-03-05T01:43:03.495Z,6.37
2019-03-05T01:45:34.113Z,4.87
2019-03-05T01:48:04.722Z,7.63
2019-03-05T01:50:35.309Z,6.60
2019-03-05T01:53:05.810Z,5.27
2019-03-05T01:55:36.340Z,4.93
2019-03-05T01:58:07.067Z,6.63
2019-03-05T02:00:39.254Z,5.30
2019-03-05T02:03:09.735Z,6.63
2019-03-05T02:05:40.409Z,5.07
2019-03-05T02:08:10.948Z,5.23
2019-03-05T02:10:41.668Z,9.03
2019-03-05T02:13:12.106Z,7.90
2019-03-05T02:15:42.986Z,8.27
2019-03-05T02:18:19.374Z,9.70
2019-03-05T02:20:50.163Z,8.50
2019-03-05T02:23:44.259Z,4.93
2019-03-05T02:26:50.690Z,8.73
2019-03-05T02:29:57.181Z,10.03
2019-03-05T02:32:51.312Z,4.47
2019-03-05T02:36:09.080Z,8.43
2019-03-05T02:39:31.575Z,5.30
2019-03-05T02:42:20.013Z,5.47
2019-03-05T02:45:43.700Z,12.80
2019-03-05T02:48:52.581Z,9.97
2019-03-05T02:51:31.635Z,7.13
2019-03-05T02:54:21.581Z,6.87
2019-03-05T02:57:14.639Z,8.17
2019-03-05T02:59:44.996Z,6.93
2019-03-05T03:02:51.661Z,9.13
2019-03-05T03:05:27.345Z,10.27
2019-03-05T03:07:58.002Z,7.97
2019-03-05T03:10:28.397Z,11.27
2019-03-05T03:12:59.155Z,8.73
2019-03-05T03:15:30.763Z,6.60
2019-03-05T03:18:01.217Z,11.73
2019-03-05T03:20:31.861Z,7.60
2019-03-05T03:23:03.532Z,8.17
2019-03-05T03:25:34.004Z,6.97
2019-03-05T03:28:04.908Z,10.40
2019-03-05T03:30:35.995Z,7.23
2019-03-05T03:33:06.577Z,8.77
2019-03-05T03:35:37.198Z,11.40
2019-03-05T03:38:07.882Z,10.73
2019-03-05T03:40:38.312Z,9.43
2019-03-05T03:43:08.847Z,10.17
2019-03-05T03:45:39.191Z,8.57
2019-03-05T03:48:09.629Z,10.57
2019-03-05T03:50:40.248Z,8.87
2019-03-05T03:53:10.679Z,10.83
2019-03-05T03:55:41.236Z,9.50
2019-03-05T03:58:12.405Z,10.43
2019-03-05T04:00:42.985Z,11.67
2019-03-05T04:03:13.661Z,10.03
2019-03-05T04:05:44.085Z,10.63
2019-03-05T04:08:14.671Z,9.53
2019-03-05T04:10:45.104Z,9.70
2019-03-05T04:13:15.728Z,11.70
2019-03-05T04:15:47.363Z,10.27
2019-03-05T04:18:18.072Z,8.00
2019-03-05T04:20:57.378Z,8.77
2019-03-05T04:23:27.853Z,14.93
2019-03-05T04:25:58.538Z,13.07
2019-03-05T04:28:29.099Z,8.07
2019-03-05T04:30:59.702Z,12.27
2019-03-05T04:33:30.153Z,10.67
2019-03-05T04:36:00.654Z,15.07
2019-03-05T04:38:31.269Z,11.23
2019-03-05T04:41:01.709Z,15.50
2019-03-05T04:43:32.193Z,10.47
2019-03-05T04:46:13.077Z,10.13
2019-03-05T04:48:45.231Z,9.40
2019-03-05T04:51:27.718Z,13.97
2019-03-05T04:53:58.187Z,14.87
2019-03-05T04:56:28.540Z,9.53
2019-03-05T04:58:58.992Z,11.53
2019-03-05T05:01:29.711Z,11.53
2019-03-05T05:04:00.166Z,14.77
2019-03-05T05:06:30.565Z,10.47
2019-03-05T05:09:01.039Z,16.43
2019-03-05T05:11:32.625Z,11.80
2019-03-05T05:14:04.442Z,15.47
2019-03-05T05:16:36.564Z,11.00
2019-03-05T05:19:07.208Z,17.80
2019-03-05T05:21:38.095Z,20.43
2019-03-05T05:24:08.473Z,14.27
2019-03-05T05:26:40.333Z,17.13
2019-03-05T05:29:10.755Z,12.50
2019-03-05T05:31:41.227Z,24.50
2019-03-05T05:34:11.794Z,14.27
2019-03-05T05:36:42.303Z,13.20
2019-03-05T05:39:48.568Z,18.10
2019-03-05T05:42:19.055Z,15.03
2019-03-05T05:44:49.871Z,11.07
2019-03-05T05:47:20.388Z,19.47
2019-03-05T05:49:50.917Z,14.63
2019-03-05T05:52:21.556Z,15.20
2019-03-05T05:54:51.941Z,14.37
2019-03-05T05:57:22.523Z,14.37
2019-03-05T05:59:53.023Z,20.83
2019-03-05T06:02:23.433Z,12.73
2019-03-05T06:04:53.807Z,14.57
2019-03-05T06:07:25.695Z,12.50
2019-03-05T06:09:56.779Z,14.80
2019-03-05T06:12:27.301Z,19.67
2019-03-05T06:14:57.759Z,18.97
2019-03-05T06:17:28.189Z,15.27
2019-03-05T06:19:58.593Z,16.77
2019-03-05T06:22:29.053Z,18.63
2019-03-05T06:24:59.479Z,22.13
2019-03-05T06:27:29.996Z,14.70
2019-03-05T06:30:00.626Z,14.97
2019-03-05T06:32:31.280Z,16.80
2019-03-05T06:35:01.744Z,10.40
2019-03-05T06:37:33.148Z,19.73
2019-03-05T06:40:04.589Z,10.27
2019-03-05T06:42:35.085Z,14.73
2019-03-05T06:45:06.751Z,15.40
2019-03-05T06:47:37.219Z,13.27
2019-03-05T06:50:09.314Z,15.33
2019-03-05T06:52:40.000Z,9.33
2019-03-05T06:55:11.534Z,11.53
2019-03-05T06:57:42.005Z,14.77
2019-03-05T07:00:25.887Z,15.17
2019-03-05T07:02:56.448Z,17.23
2019-03-05T07:06:02.933Z,14.67
2019-03-05T07:08:33.875Z,10.77
2019-03-05T07:11:48.387Z,13.20
2019-03-05T07:14:24.341Z,17.17
2019-03-05T07:17:14.888Z,14.90
2019-03-05T07:20:31.472Z,14.63
2019-03-05T07:23:17.019Z,15.63
2019-03-05T07:25:47.892Z,14.43
2019-03-05T07:28:18.652Z,14.53
2019-03-05T07:30:49.083Z,13.50
2019-03-05T07:33:19.585Z,10.83
2019-03-05T07:35:50.125Z,13.30
2019-03-05T07:38:20.713Z,9.67
2019-03-05T07:40:51.496Z,10.13
2019-03-05T07:43:22.042Z,14.57
2019-03-05T07:45:52.777Z,15.27
2019-03-05T07:48:23.535Z,9.83
2019-03-05T07:50:54.319Z,10.37
2019-03-05T07:53:25.227Z,12.63
2019-03-05T07:55:55.837Z,10.07
2019-03-05T07:58:26.615Z,12.73
2019-03-05T08:00:57.063Z,9.27
2019-03-05T08:03:28.623Z,43.33
2019-03-05T08:05:59.296Z,9.93
2019-03-05T08:09:07.429Z,9.73
2019-03-05T08:11:37.910Z,14.10
2019-03-05T08:14:29.945Z,11.80
2019-03-05T08:17:00.364Z,8.43
2019-03-05T08:19:31.003Z,11.07
2019-03-05T08:22:01.813Z,8.53
2019-03-05T08:24:32.763Z,7.77
2019-03-05T08:27:03.474Z,17.30
2019-03-05T08:29:35.436Z,12.83
2019-03-05T08:32:06.022Z,12.00
2019-03-05T08:34:36.747Z,12.53
2019-03-05T08:37:07.721Z,9.37
2019-03-05T08:39:38.829Z,13.50
2019-03-05T08:42:09.313Z,14.30
2019-03-05T08:44:49.921Z,13.70
2019-03-05T08:47:11.791Z,13.23
2019-03-05T08:49:42.246Z,14.33
2019-03-05T08:52:12.758Z,8.67
2019-03-05T08:54:45.372Z,10.10
2019-03-05T08:57:15.491Z,9.70
2019-03-05T08:59:46.136Z,11.93
2019-03-05T09:02:16.576Z,9.63
2019-03-05T09:04:47.279Z,9.83
2019-03-05T09:07:17.691Z,12.97
2019-03-05T09:09:48.445Z,9.13
2019-03-05T09:12:19.232Z,9.53
2019-03-05T09:14:49.589Z,10.87
2019-03-05T09:17:20.211Z,12.13
2019-03-05T09:19:50.865Z,5.60
2019-03-05T09:22:21.259Z,7.73
2019-03-05T09:24:51.811Z,8.27
2019-03-05T09:27:24.176Z,5.37
2019-03-05T09:29:54.705Z,9.30
2019-03-05T09:32:26.177Z,11.10
2019-03-05T09:34:56.729Z,10.70
2019-03-05T09:37:27.351Z,7.00
2019-03-05T09:39:57.815Z,6.67
2019-03-05T09:42:39.341Z,7.17
2019-03-05T09:45:02.386Z,7.30
2019-03-05T09:47:33.386Z,13.53
2019-03-05T09:50:04.507Z,14.17
2019-03-05T09:52:35.210Z,12.80
2019-03-05T09:55:06.393Z,7.37
2019-03-05T09:57:38.645Z,10.10
2019-03-05T10:00:12.907Z,9.17
2019-03-05T10:02:43.859Z,6.63
2019-03-05T10:05:15.663Z,10.00
2019-03-05T10:07:46.433Z,9.37
2019-03-05T10:10:19.627Z,7.70
2019-03-05T10:12:50.445Z,6.53
2019-03-05T10:15:21.731Z,11.13
2019-03-05T10:17:52.760Z,6.83
2019-03-05T10:20:24.542Z,13.97
2019-03-05T10:22:55.006Z,8.30
2019-03-05T10:25:25.818Z,15.03
2019-03-05T10:27:56.781Z,9.93
2019-03-05T10:30:28.761Z,8.53
2019-03-05T10:33:01.270Z,12.30
2019-03-05T10:35:31.715Z,13.63
2019-03-05T10:38:05.339Z,10.17
2019-03-05T10:40:38.474Z,9.23
2019-03-05T10:43:11.533Z,12.00
2019-03-05T10:45:44.436Z,10.13
2019-03-05T10:48:16.399Z,8.33
2019-03-05T10:50:47.896Z,9.07
2019-03-05T10:53:18.915Z,14.53
2019-03-05T10:55:49.399Z,9.30
2019-03-05T10:58:19.996Z,11.67
2019-03-05T11:00:50.765Z,10.70
2019-03-05T11:03:23.444Z,13.30
2019-03-05T11:05:53.903Z,14.07
2019-03-05T11:08:24.695Z,9.57
2019-03-05T11:10:56.372Z,10.60
2019-03-05T11:13:28.638Z,10.57
2019-03-05T11:15:59.351Z,9.43
2019-03-05T11:18:30.153Z,10.90
2019-03-05T11:21:01.210Z,16.00
2019-03-05T11:23:31.811Z,8.33
2019-03-05T11:26:02.326Z,9.80
2019-03-05T11:28:33.837Z,10.43
2019-03-05T11:31:05.961Z,11.57
2019-03-05T11:33:36.707Z,14.70
2019-03-05T11:36:07.497Z,14.90
2019-03-05T11:38:39.326Z,8.70
2019-03-05T11:41:09.908Z,9.67
2019-03-05T11:43:40.640Z,12.03
2019-03-05T11:46:18.299Z,12.07
2019-03-05T11:48:48.965Z,9.43
2019-03-05T11:51:19.790Z,10.50
2019-03-05T11:53:50.369Z,12.27
2019-03-05T11:56:20.847Z,10.73
2019-03-05T11:58:51.385Z,7.23
2019-03-05T12:01:27.949Z,13.87
2019-03-05T12:03:58.736Z,8.63
2019-03-05T12:06:29.067Z,13.90
2019-03-05T12:08:59.493Z,10.80
2019-03-05T12:11:31.860Z,11.67
2019-03-05T12:14:02.374Z,9.23
2019-03-05T12:16:33.383Z,19.57
2019-03-05T12:19:05.215Z,10.57
2019-03-05T12:21:35.718Z,8.43
2019-03-05T12:24:06.177Z,10.23
2019-03-05T12:26:36.782Z,10.53
2019-03-05T12:29:07.208Z,8.60
2019-03-05T12:31:37.755Z,10.20
2019-03-05T12:34:08.401Z,11.40
2019-03-05T12:36:39.110Z,14.97
2019-03-05T12:39:10.516Z,18.17
2019-03-05T12:41:41.424Z,11.40
2019-03-05T12:44:11.921Z,11.03
2019-03-05T12:46:42.444Z,13.50
2019-03-05T12:49:13.630Z,11.00
2019-03-05T12:51:44.066Z,10.73
2019-03-05T12:54:16.010Z,12.37
2019-03-05T12:56:46.420Z,12.03
2019-03-05T12:59:17.080Z,14.47
2019-03-05T13:01:47.575Z,12.60
2019-03-05T13:04:18.794Z,15.37
2019-03-05T13:06:51.122Z,13.07
2019-03-05T13:09:22.251Z,23.07
2019-03-05T13:11:52.741Z,10.37
2019-03-05T13:14:23.160Z,14.07
2019-03-05T13:16:54.059Z,13.20
2019-03-05T13:19:25.304Z,25.83
2019-03-05T13:21:56.169Z,14.37
2019-03-05T13:24:26.776Z,14.97
2019-03-05T13:26:57.333Z,16.23
2019-03-05T13:29:28.106Z,12.90
2019-03-05T13:31:58.640Z,15.47
2019-03-05T13:34:29.146Z,13.57
2019-03-05T13:37:00.942Z,16.93
2019-03-05T13:39:31.592Z,17.43
2019-03-05T13:42:02.320Z,13.83
2019-03-05T13:44:36.446Z,16.00
2019-03-05T13:47:08.712Z,12.27
2019-03-05T13:49:57.666Z,12.70
2019-03-05T13:52:35.950Z,14.13
2019-03-05T13:55:31.770Z,12.17
2019-03-05T13:58:43.043Z,10.93
2019-03-05T14:01:14.181Z,12.60
2019-03-05T14:03:53.316Z,10.87
2019-03-05T14:07:06.730Z,15.50
2019-03-05T14:09:35.464Z,9.47
2019-03-05T14:12:05.886Z,9.40
2019-03-05T14:14:36.472Z,8.73
2019-03-05T14:17:21.460Z,13.03
2019-03-05T14:19:52.213Z,11.60
2019-03-05T14:22:22.734Z,11.60
2019-03-05T14:25:01.549Z,10.40
2019-03-05T14:27:25.444Z,8.33
2019-03-05T14:29:55.846Z,10.83
2019-03-05T14:32:26.392Z,10.43
2019-03-05T14:35:07.448Z,15.70
2019-03-05T14:37:38.101Z,8.13
2019-03-05T14:40:23.587Z,10.00
2019-03-05T14:42:44.964Z,10.87
2019-03-05T14:45:21.142Z,9.80
2019-03-05T14:47:52.756Z,14.13
2019-03-05T14:50:23.507Z,8.20
2019-03-05T14:52:54.442Z,8.23
2019-03-05T14:55:25.192Z,14.37
2019-03-05T14:57:55.664Z,13.33
2019-03-05T15:00:26.088Z,15.03
2019-03-05T15:02:56.734Z,11.20
2019-03-05T15:05:27.333Z,7.70
2019-03-05T15:07:58.681Z,8.00
2019-03-05T15:10:29.399Z,17.93
2019-03-05T15:13:00.331Z,12.20
2019-03-05T15:15:31.422Z,13.23
2019-03-05T15:18:02.019Z,14.27
2019-03-05T15:20:32.446Z,14.17
2019-03-05T15:23:02.876Z,9.87
2019-03-05T15:25:33.263Z,14.43
2019-03-05T15:28:03.752Z,14.20
2019-03-05T15:30:34.869Z,14.93
2019-03-05T15:33:05.333Z,14.80
2019-03-05T15:35:36.051Z,18.00
2019-03-05T15:38:06.772Z,14.83
2019-03-05T15:40:37.247Z,16.30
2019-03-05T15:43:07.886Z,9.90
2019-03-05T15:45:38.696Z,12.17
2019-03-05T15:48:09.457Z,12.57
2019-03-05T15:50:39.903Z,13.67
2019-03-05T15:53:10.487Z,11.93
2019-03-05T15:55:40.948Z,11.53
2019-03-05T15:58:11.392Z,17.17
2019-03-05T16:00:42.460Z,8.63
2019-03-05T16:03:13.037Z,9.50
2019-03-05T16:05:43.750Z,15.97
2019-03-05T16:08:14.387Z,14.00
2019-03-05T16:10:44.820Z,11.23
2019-03-05T16:13:19.333Z,9.77
2019-03-05T16:15:47.863Z,6.70
2019-03-05T16:18:18.761Z,12.20
2019-03-05T16:20:49.214Z,8.67
2019-03-05T16:23:21.322Z,7.37
2019-03-05T16:25:52.246Z,9.63
2019-03-05T16:28:23.132Z,6.77
2019-03-05T16:31:15.624Z,8.53
2019-03-05T16:34:17.424Z,5.47
2019-03-05T16:37:12.790Z,5.90
2019-03-05T16:40:11.067Z,11.37
2019-03-05T16:43:02.712Z,11.50
2019-03-05T16:45:45.225Z,6.70
2019-03-05T16:48:37.907Z,6.27
2019-03-05T16:51:27.697Z,10.07
2019-03-05T16:54:09.910Z,10.63
2019-03-05T16:56:57.991Z,15.27
2019-03-05T17:00:05.852Z,11.70
2019-03-05T17:02:42.962Z,10.07
2019-03-05T17:05:41.590Z,14.13
2019-03-05T17:08:43.044Z,13.43
2019-03-05T17:11:32.788Z,13.10
2019-03-05T17:14:03.583Z,12.40
2019-03-05T17:16:34.984Z,13.90
2019-03-05T17:19:05.572Z,10.87
2019-03-05T17:21:37.034Z,14.20
2019-03-05T17:24:07.736Z,12.13
2019-03-05T17:26:38.780Z,11.33
2019-03-05T17:29:09.283Z,10.87
2019-03-05T17:31:41.401Z,20.10
2019-03-05T17:34:11.860Z,14.97
2019-03-05T17:36:43.270Z,15.87
2019-03-05T17:39:19.652Z,15.30
2019-03-05T17:41:50.461Z,14.87
2019-03-05T17:44:21.875Z,12.13
2019-03-05T17:46:52.537Z,16.93
2019-03-05T17:49:23.473Z,16.97
2019-03-05T17:51:54.280Z,21.60
2019-03-05T17:54:24.919Z,16.43
2019-03-05T17:56:55.710Z,13.97
2019-03-05T17:59:26.795Z,17.27
2019-03-05T18:01:57.367Z,16.77
2019-03-05T18:04:28.264Z,18.37
2019-03-05T18:06:58.701Z,16.60
2019-03-05T18:09:31.673Z,14.00
2019-03-05T18:12:02.438Z,23.17
2019-03-05T18:14:33.637Z,24.43
2019-03-05T18:17:05.554Z,21.27
2019-03-05T18:19:36.179Z,14.20
2019-03-05T18:22:07.645Z,15.47
2019-03-05T18:24:38.439Z,15.00
2019-03-05T18:27:08.917Z,20.83
2019-03-05T18:29:39.878Z,16.00
2019-03-05T18:32:10.537Z,18.30
2019-03-05T18:34:41.644Z,17.70
2019-03-05T18:37:12.187Z,22.90
2019-03-05T18:39:44.561Z,15.27
2019-03-05T18:42:16.939Z,19.03
2019-03-05T18:44:47.840Z,25.03
2019-03-05T18:47:18.424Z,24.40
2019-03-05T18:49:50.820Z,21.57
2019-03-05T18:52:23.096Z,23.30
2019-03-05T18:54:53.489Z,24.03
2019-03-05T18:57:24.187Z,22.00
2019-03-05T18:59:54.808Z,17.27
2019-03-05T19:02:25.146Z,17.27
2019-03-05T19:04:56.266Z,14.80
2019-03-05T19:07:26.908Z,23.47
2019-03-05T19:09:57.529Z,12.20
2019-03-05T19:12:28.488Z,17.00
2019-03-05T19:14:58.941Z,21.77
2019-03-05T19:17:29.499Z,24.67
2019-03-05T19:20:00.325Z,27.57
2019-03-05T19:22:31.506Z,16.93
2019-03-05T19:25:02.089Z,25.60
2019-03-05T19:27:32.740Z,15.73
2019-03-05T19:30:04.666Z,19.13
2019-03-05T19:32:35.574Z,17.03
2019-03-05T19:35:06.986Z,30.10
2019-03-05T19:37:37.648Z,23.10
2019-03-05T19:40:10.279Z,20.30
2019-03-05T19:42:40.912Z,24.97
2019-03-05T19:45:11.852Z,18.70
2019-03-05T19:47:43.417Z,24.53
2019-03-05T19:50:15.853Z,17.70
2019-03-05T19:52:47.043Z,19.57
2019-03-05T19:55:19.891Z,19.67
2019-03-05T19:57:53.742Z,20.33
2019-03-05T20:00:31.221Z,17.87
2019-03-05T20:03:01.898Z,16.17
2019-03-05T20:05:32.488Z,21.33
2019-03-05T20:08:03.427Z,22.53
2019-03-05T20:10:34.336Z,23.80
2019-03-05T20:13:04.931Z,20.73
2019-03-05T20:15:41.747Z,17.20
2019-03-05T20:18:12.213Z,15.60
2019-03-05T20:20:43.582Z,19.70
2019-03-05T20:23:14.079Z,19.33
2019-03-05T20:25:44.765Z,19.47
2019-03-05T20:28:15.831Z,23.63
2019-03-05T20:30:46.244Z,16.20
2019-03-05T20:33:16.761Z,25.40
2019-03-05T20:35:47.717Z,25.80
2019-03-05T20:38:18.417Z,18.87
2019-03-05T20:40:49.040Z,17.87
2019-03-05T20:43:19.884Z,23.10
2019-03-05T20:45:50.743Z,19.57
2019-03-05T20:48:21.552Z,17.70
2019-03-05T20:50:52.126Z,18.43
2019-03-05T20:53:22.632Z,17.87
2019-03-05T20:55:54.359Z,27.93
2019-03-05T20:58:25.560Z,17.70
2019-03-05T21:00:57.400Z,23.23
2019-03-05T21:03:28.046Z,18.20
2019-03-05T21:05:58.759Z,40.33
2019-03-05T21:08:29.272Z,83.73
2019-03-05T21:11:00.218Z,26.63
2019-03-05T21:13:30.711Z,21.53
2019-03-05T21:16:01.352Z,21.63
2019-03-05T21:18:31.845Z,19.87
2019-03-05T21:21:03.230Z,27.97
2019-03-05T21:23:33.764Z,24.37
2019-03-05T21:26:04.329Z,22.57
2019-03-05T21:28:34.821Z,24.07
2019-03-05T21:31:05.317Z,22.50
2019-03-05T21:33:35.888Z,29.77
2019-03-05T21:36:06.429Z,21.27
2019-03-05T21:38:37.045Z,23.60
2019-03-05T21:41:07.847Z,21.23
2019-03-05T21:43:39.148Z,23.37
2019-03-05T21:46:15.098Z,20.93
2019-03-05T21:48:45.519Z,20.60
2019-03-05T21:51:16.484Z,22.00
2019-03-05T21:53:47.411Z,24.67
2019-03-05T21:56:18.343Z,21.33
2019-03-05T21:58:48.811Z,22.23
2019-03-05T22:01:19.428Z,23.67
2019-03-05T22:03:50.652Z,20.27
2019-03-05T22:06:21.120Z,19.27
2019-03-05T22:08:51.675Z,20.67
2019-03-05T22:11:22.637Z,22.70
2019-03-05T22:13:53.309Z,20.53
2019-03-05T22:16:23.813Z,24.93
2019-03-05T22:18:54.355Z,24.73
2019-03-05T22:21:24.912Z,22.20
2019-03-05T22:23:56.912Z,21.70
2019-03-05T22:26:27.244Z,26.50
2019-03-05T22:28:58.015Z,22.33
2019-03-05T22:31:28.683Z,30.47
2019-03-05T22:33:59.181Z,24.67
2019-03-05T22:36:29.825Z,23.70
2019-03-05T22:39:00.269Z,22.93
2019-03-05T22:41:31.269Z,20.97
2019-03-05T22:44:01.639Z,25.03
2019-03-05T22:46:32.109Z,28.03
2019-03-05T22:49:02.561Z,61.53
2019-03-05T22:51:33.374Z,24.67
2019-03-05T22:54:03.849Z,27.53
2019-03-05T22:56:34.359Z,30.80
2019-03-05T22:59:05.319Z,27.10
2019-03-05T23:01:41.277Z,24.77
2019-03-05T23:04:14.651Z,23.53
2019-03-05T23:06:45.281Z,21.03
2019-03-05T23:09:23.865Z,24.90
2019-03-05T23:11:55.007Z,20.17
2019-03-05T23:14:25.664Z,25.70
2019-03-05T23:16:56.595Z,23.80
2019-03-05T23:19:28.191Z,26.47
2019-03-05T23:22:00.721Z,24.03
2019-03-05T23:24:31.453Z,26.37
2019-03-05T23:27:02.795Z,27.03
2019-03-05T23:29:47.761Z,21.57
2019-03-05T23:32:19.347Z,24.67
2019-03-05T23:34:49.913Z,24.00
2019-03-05T23:37:21.791Z,23.60
2019-03-05T23:39:52.405Z,23.67
2019-03-05T23:42:23.995Z,23.90
2019-03-05T23:44:54.729Z,25.97
2019-03-05T23:47:27.615Z,26.37
2019-03-05T23:49:58.227Z,24.10
2019-03-05T23:52:28.613Z,21.60
2019-03-05T23:54:59.233Z,29.70
2019-03-05T23:57:29.795Z,20.20
